createdAt,value
2023-02-09T00:01:30.398Z,33.08
2023-02-09T00:06:31.135Z,37.20
2023-02-09T00:11:49.366Z,39.67
2023-02-09T00:16:47.763Z,38.20
2023-02-09T00:21:47.617Z,37.53
2023-02-09T00:26:48.255Z,35.20
2023-02-09T00:31:53.684Z,43.15
2023-02-09T00:36:54.111Z,53.03
2023-02-09T00:42:08.830Z,62.35
2023-02-09T00:47:09.442Z,57.55
2023-02-09T00:52:09.911Z,56.72
2023-02-09T00:57:09.727Z,56.65
2023-02-09T01:02:10.460Z,52.60
2023-02-09T01:07:12.839Z,50.78
2023-02-09T01:12:11.313Z,49.55
2023-02-09T01:17:09.382Z,41.00
2023-02-09T01:22:09.129Z,48.33
2023-02-09T01:27:07.223Z,39.95
2023-02-09T01:32:07.853Z,41.33
2023-02-09T01:37:06.578Z,41.20
2023-02-09T01:42:04.975Z,41.17
2023-02-09T01:47:04.448Z,38.80
2023-02-09T01:52:10.210Z,42.55
2023-02-09T01:57:14.824Z,47.15
2023-02-09T02:02:13.975Z,43.17
2023-02-09T02:07:24.741Z,42.70
2023-02-09T02:12:25.369Z,46.13
2023-02-09T02:17:25.725Z,51.00
2023-02-09T02:22:41.011Z,41.70
2023-02-09T02:27:48.653Z,37.40
2023-02-09T02:32:55.484Z,30.10
2023-02-09T02:38:32.649Z,29.20
2023-02-09T02:43:40.939Z,33.22
2023-02-09T02:48:43.768Z,32.60
2023-02-09T02:53:45.504Z,29.80
2023-02-09T02:58:45.677Z,28.15
2023-02-09T03:03:45.263Z,31.10
2023-02-09T03:08:55.472Z,35.00
2023-02-09T03:14:26.909Z,29.95
2023-02-09T03:19:34.229Z,29.58
2023-02-09T03:24:53.792Z,28.30
2023-02-09T03:29:56.415Z,31.95
2023-02-09T03:34:55.896Z,35.95
2023-02-09T03:39:54.866Z,25.58
2023-02-09T03:44:56.319Z,33.83
2023-02-09T03:49:58.568Z,29.65
2023-02-09T03:54:56.585Z,29.20
2023-02-09T03:59:55.216Z,33.75
2023-02-09T04:04:54.283Z,33.72
2023-02-09T04:10:04.236Z,28.90
2023-02-09T04:15:02.840Z,41.10
2023-02-09T04:20:04.433Z,34.88
2023-02-09T04:25:11.348Z,37.80
2023-02-09T04:30:11.317Z,47.50
2023-02-09T04:35:10.707Z,39.95
2023-02-09T04:40:12.125Z,39.10
2023-02-09T04:45:15.175Z,39.22
2023-02-09T04:50:15.109Z,40.78
2023-02-09T04:55:13.092Z,39.40
2023-02-09T05:00:15.026Z,38.38
2023-02-09T05:05:14.005Z,31.92
2023-02-09T05:10:12.757Z,30.73
2023-02-09T05:15:12.104Z,29.13
2023-02-09T05:20:11.179Z,31.70
2023-02-09T05:25:13.479Z,25.02
2023-02-09T05:30:12.320Z,21.40
2023-02-09T05:35:11.533Z,23.23
2023-02-09T05:40:13.854Z,22.30
2023-02-09T05:45:15.985Z,18.08
2023-02-09T05:50:17.321Z,29.83
2023-02-09T05:55:19.199Z,20.65
2023-02-09T06:00:20.053Z,24.17
2023-02-09T06:05:23.505Z,23.83
2023-02-09T06:10:24.263Z,21.73
2023-02-09T06:15:23.540Z,18.05
2023-02-09T06:20:23.950Z,17.40
2023-02-09T06:25:25.909Z,20.50
2023-02-09T06:30:26.427Z,24.98
2023-02-09T06:35:26.970Z,25.77
2023-02-09T06:40:25.289Z,26.50
2023-02-09T06:45:26.404Z,27.67
2023-02-09T06:50:25.567Z,62.35
2023-02-09T06:55:23.549Z,31.90
2023-02-09T07:00:26.019Z,34.83
2023-02-09T07:05:25.588Z,35.65
2023-02-09T07:10:24.377Z,27.85
2023-02-09T07:15:22.598Z,24.77
2023-02-09T07:20:21.668Z,21.48
2023-02-09T07:25:19.546Z,27.65
2023-02-09T07:30:19.582Z,30.90
2023-02-09T07:35:20.430Z,21.38
2023-02-09T07:40:22.414Z,29.65
2023-02-09T07:45:25.266Z,26.52
2023-02-09T07:50:24.515Z,20.17
2023-02-09T07:55:23.759Z,27.98
2023-02-09T08:00:24.435Z,28.13
2023-02-09T08:05:27.554Z,23.38
2023-02-09T08:10:26.787Z,28.80
2023-02-09T08:15:26.473Z,24.92
2023-02-09T08:20:28.633Z,20.20
2023-02-09T08:25:29.463Z,22.00
2023-02-09T08:30:31.334Z,25.63
2023-02-09T08:35:34.271Z,18.98
2023-02-09T08:40:32.450Z,23.75
2023-02-09T08:45:31.883Z,22.63
2023-02-09T08:50:32.311Z,20.58
2023-02-09T08:55:37.075Z,11.85
2023-02-09T09:00:35.340Z,17.60
2023-02-09T09:05:38.858Z,19.25
2023-02-09T09:10:40.471Z,18.65
2023-02-09T09:15:41.278Z,23.67
2023-02-09T09:20:44.576Z,25.23
2023-02-09T09:25:48.034Z,15.25
2023-02-09T09:30:45.851Z,20.00
2023-02-09T09:35:45.818Z,17.70
2023-02-09T09:40:49.252Z,12.40
2023-02-09T09:45:50.582Z,15.32
2023-02-09T09:50:48.572Z,17.10
2023-02-09T09:55:49.363Z,15.05
2023-02-09T10:00:54.500Z,17.58
2023-02-09T10:06:25.428Z,17.80
2023-02-09T10:11:39.338Z,9.73
2023-02-09T10:16:40.443Z,13.20
2023-02-09T10:22:00.285Z,14.40
2023-02-09T10:27:17.612Z,13.48
2023-02-09T10:32:21.076Z,15.20
2023-02-09T10:42:35.646Z,12.88
2023-02-09T10:47:34.332Z,28.45
2023-02-09T10:52:37.903Z,19.42
2023-02-09T11:02:45.877Z,13.65
2023-02-09T11:07:45.050Z,13.07
2023-02-09T11:12:44.864Z,13.45
2023-02-09T11:17:48.454Z,16.38
2023-02-09T11:28:12.074Z,12.85
2023-02-09T11:33:13.968Z,12.95
2023-02-09T11:38:15.905Z,14.27
2023-02-09T11:43:17.547Z,18.67
2023-02-09T11:48:26.817Z,10.70
2023-02-09T11:53:50.857Z,9.70
2023-02-09T11:59:21.926Z,11.45
2023-02-09T12:04:46.033Z,11.10
2023-02-09T12:10:05.672Z,5.22
2023-02-09T12:15:17.637Z,9.60
2023-02-09T12:20:38.024Z,12.95
2023-02-09T12:26:02.593Z,9.45
2023-02-09T12:31:09.140Z,5.95
2023-02-09T12:36:10.754Z,10.50
2023-02-09T12:41:09.258Z,4.63
2023-02-09T12:46:16.454Z,9.07
2023-02-09T12:51:43.141Z,6.20
2023-02-09T12:56:41.244Z,11.05
2023-02-09T13:02:11.158Z,8.27
2023-02-09T13:07:56.704Z,5.05
2023-02-09T13:13:00.844Z,6.85
2023-02-09T13:18:05.353Z,7.65
2023-02-09T13:23:43.408Z,5.13
2023-02-09T13:28:44.146Z,6.75
2023-02-09T13:33:49.204Z,6.68
2023-02-09T13:38:47.289Z,8.65
2023-02-09T13:43:50.025Z,8.80
2023-02-09T13:48:51.596Z,9.47
2023-02-09T13:54:02.833Z,14.15
2023-02-09T13:59:00.933Z,11.57
2023-02-09T14:04:19.841Z,11.77
2023-02-09T14:09:23.690Z,7.47
2023-02-09T14:15:17.334Z,7.55
2023-02-09T14:20:23.448Z,13.83
2023-02-09T14:25:28.515Z,18.92
2023-02-09T14:30:36.541Z,9.00
2023-02-09T14:35:39.485Z,10.27
2023-02-09T14:40:37.950Z,9.27
2023-02-09T14:45:43.350Z,12.35
2023-02-09T14:50:43.242Z,14.23
2023-02-09T14:55:44.717Z,9.73
2023-02-09T15:00:45.310Z,22.30
2023-02-09T15:05:47.304Z,10.60
2023-02-09T15:10:50.771Z,12.80
2023-02-09T15:15:49.884Z,15.52
2023-02-09T15:20:49.769Z,8.68
2023-02-09T15:25:51.144Z,10.38
2023-02-09T15:30:52.566Z,8.85
2023-02-09T15:35:53.525Z,19.17
2023-02-09T15:41:15.067Z,17.95
2023-02-09T15:46:34.826Z,21.52
2023-02-09T15:51:38.183Z,24.20
2023-02-09T15:56:39.374Z,23.58
2023-02-09T16:01:38.946Z,13.93
2023-02-09T16:06:51.173Z,24.80
2023-02-09T16:11:50.440Z,18.02
2023-02-09T16:16:48.524Z,20.00
2023-02-09T16:21:51.180Z,17.05
2023-02-09T16:26:53.654Z,19.10
2023-02-09T16:32:02.423Z,17.80
2023-02-09T16:37:04.067Z,15.95
2023-02-09T16:42:02.402Z,16.98
2023-02-09T16:47:00.920Z,21.13
2023-02-09T16:52:06.776Z,23.58
2023-02-09T16:57:05.570Z,33.85
2023-02-09T17:02:03.952Z,23.77
2023-02-09T17:07:04.723Z,23.20
2023-02-09T17:12:04.666Z,26.60
2023-02-09T17:17:05.457Z,24.33
2023-02-09T17:22:09.885Z,25.40
2023-02-09T17:27:09.595Z,26.92
2023-02-09T17:32:12.635Z,29.95
2023-02-09T17:37:14.942Z,30.30
2023-02-09T17:42:21.327Z,36.42
2023-02-09T17:47:23.691Z,45.45
2023-02-09T17:52:25.892Z,29.80
2023-02-09T17:57:27.637Z,34.28
2023-02-09T18:02:28.428Z,30.45
2023-02-09T18:07:56.597Z,41.35
2023-02-09T18:12:57.209Z,27.98
2023-02-09T18:17:57.784Z,33.83
2023-02-09T18:22:56.682Z,35.45
2023-02-09T18:27:57.551Z,27.75
2023-02-09T18:32:56.812Z,24.20
2023-02-09T18:37:55.316Z,27.13
2023-02-09T18:42:55.820Z,21.92
2023-02-09T18:47:54.812Z,28.88
2023-02-09T18:52:55.376Z,27.25
2023-02-09T18:57:53.697Z,37.47
2023-02-09T19:02:54.247Z,34.58
2023-02-09T19:07:53.292Z,34.63
2023-02-09T19:12:54.400Z,28.98
2023-02-09T19:17:56.706Z,30.90
2023-02-09T19:22:55.210Z,46.67
2023-02-09T19:28:00.077Z,41.90
2023-02-09T19:33:00.391Z,48.35
2023-02-09T19:38:01.953Z,56.63
2023-02-09T19:43:04.559Z,45.20
2023-02-09T19:48:10.261Z,51.00
2023-02-09T19:53:10.969Z,50.75
2023-02-09T19:58:10.043Z,48.92
2023-02-09T20:03:21.936Z,58.15
2023-02-09T20:09:06.213Z,68.60
2023-02-09T20:14:07.415Z,73.03
2023-02-09T20:19:05.707Z,87.45
2023-02-09T20:24:09.970Z,83.95
2023-02-09T20:29:08.736Z,81.75
2023-02-09T20:34:09.339Z,99.07
2023-02-09T20:39:13.526Z,88.35
2023-02-09T20:44:32.626Z,91.28
2023-02-09T20:49:35.984Z,85.13
2023-02-09T20:54:34.142Z,87.18
2023-02-09T20:59:34.234Z,82.13
2023-02-09T21:04:32.667Z,88.63
2023-02-09T21:09:34.430Z,73.82
2023-02-09T21:14:43.936Z,72.28
2023-02-09T21:19:46.445Z,77.22
2023-02-09T21:24:44.376Z,74.28
2023-02-09T21:29:42.455Z,76.43
2023-02-09T21:34:43.365Z,89.60
2023-02-09T21:39:44.758Z,84.15
2023-02-09T21:44:45.202Z,77.97
2023-02-09T21:49:45.605Z,92.32
2023-02-09T21:54:44.749Z,109.72
2023-02-09T21:59:43.438Z,107.07
2023-02-09T22:04:42.227Z,102.63
2023-02-09T22:09:43.621Z,112.30
2023-02-09T22:14:44.796Z,111.05
2023-02-09T22:19:43.161Z,106.65
2023-02-09T22:24:45.787Z,111.53
2023-02-09T22:29:46.458Z,110.05
2023-02-09T22:34:46.699Z,109.72
2023-02-09T22:39:47.691Z,112.93
2023-02-09T22:44:56.602Z,130.57
2023-02-09T22:50:02.710Z,98.38
2023-02-09T22:55:00.345Z,88.35
2023-02-09T23:00:00.714Z,77.35
2023-02-09T23:05:00.931Z,50.60
2023-02-09T23:10:02.927Z,48.88
2023-02-09T23:15:02.551Z,51.72
2023-02-09T23:20:08.074Z,49.78
2023-02-09T23:25:07.051Z,53.83
2023-02-09T23:30:07.703Z,50.58
2023-02-09T23:35:09.181Z,53.40
2023-02-09T23:40:11.300Z,52.67
2023-02-09T23:45:10.790Z,51.42
2023-02-09T23:50:12.600Z,54.20
2023-02-09T23:55:12.198Z,53.33
